Time;durP1;ratioP1;P1;durP2;ratioP2;P2;SDS_P1;SDS_P2;PMS_P1;PMS_P2;Temp;Humidity;BMP_temperature;BMP_pressure;BME280_temperature;BME280_humidity;BME280_pressure;Samples;Min_cycle;Max_cycle;Signal;HPM_P1;HPM_P2
2021/01/16 00:01:05;;;;;;;9.07;3.03;;;;;;;-7.78;67.90;99104.38;1669051;83;21128;-52
2021/01/16 00:03:33;;;;;;;9.63;3.67;;;;;;;-7.77;67.85;99102.64;1727207;81;21983;-53
2021/01/16 00:06:00;;;;;;;10.33;3.70;;;;;;;-7.82;67.82;99098.64;1665264;84;21151;-52
2021/01/16 00:08:28;;;;;;;10.40;3.90;;;;;;;-7.81;67.93;99092.98;1726708;81;21140;-54
2021/01/16 00:10:57;;;;;;;8.07;2.47;;;;;;;-7.78;67.88;99098.27;1726005;81;21136;-53
2021/01/16 00:13:33;;;;;;;6.10;1.77;;;;;;;-7.79;67.80;99094.77;1686846;82;21741;-53
2021/01/16 00:16:00;;;;;;;8.63;3.03;;;;;;;-7.79;67.70;99093.47;1688523;82;21640;-53
2021/01/16 00:18:28;;;;;;;5.70;1.70;;;;;;;-7.76;67.43;99098.75;1665302;83;21161;-51
2021/01/16 00:20:58;;;;;;;6.13;1.80;;;;;;;-7.74;67.19;99100.08;1726175;81;21207;-54
2021/01/16 00:23:26;;;;;;;6.90;2.03;;;;;;;-7.73;67.05;99097.47;1726855;80;21691;-53
2021/01/16 00:25:53;;;;;;;11.30;2.87;;;;;;;-7.74;67.00;99094.86;1725673;81;21978;-52
2021/01/16 00:28:28;;;;;;;5.60;2.70;;;;;;;-7.77;66.86;99090.45;1730078;80;21267;-53
2021/01/16 00:30:55;;;;;;;6.12;1.47;;;;;;;-7.82;66.93;99086.88;1724033;81;21171;-54
2021/01/16 00:33:25;;;;;;;7.47;1.90;;;;;;;-7.80;66.95;99089.09;1729768;81;21569;-53
2021/01/16 00:35:55;;;;;;;8.37;2.80;;;;;;;-7.76;66.89;99090.03;1727641;81;21168;-53
2021/01/16 00:38:23;;;;;;;6.57;2.47;;;;;;;-7.74;66.85;99089.17;1726305;81;21101;-52
2021/01/16 00:40:51;;;;;;;8.13;2.30;;;;;;;-7.72;66.77;99106.18;1726927;81;22280;-54
2021/01/16 00:43:18;;;;;;;9.77;2.83;;;;;;;-7.75;66.77;99096.59;1735714;81;21140;-54
2021/01/16 00:45:45;;;;;;;9.03;2.60;;;;;;;-7.79;66.69;99097.39;1728761;80;21120;-53
2021/01/16 00:48:17;;;;;;;10.37;2.77;;;;;;;-7.83;66.80;99087.77;1733594;80;21751;-55
2021/01/16 00:50:45;;;;;;;8.20;2.63;;;;;;;-7.81;66.84;99090.38;1727585;81;21610;-55
2021/01/16 00:53:13;;;;;;;9.67;2.33;;;;;;;-7.81;66.85;99091.69;1727700;80;22059;-53
2021/01/16 00:55:57;;;;;;;10.20;2.92;;;;;;;-7.80;66.76;99093.44;1725971;81;21255;-51
2021/01/16 00:58:29;;;;;;;8.27;3.03;;;;;;;-7.80;66.69;99099.55;1729995;81;21195;-53
2021/01/16 01:00:57;;;;;;;6.70;1.97;;;;;;;-7.82;66.67;99086.00;1726609;81;21199;-51
2021/01/16 01:03:26;;;;;;;10.47;2.17;;;;;;;-7.84;66.75;99095.16;1725241;81;22296;-54
2021/01/16 01:05:54;;;;;;;9.63;2.53;;;;;;;-7.83;66.79;99094.73;1724035;81;21217;-53
2021/01/16 01:08:28;;;;;;;10.03;3.00;;;;;;;-7.83;66.67;99103.88;1729033;81;21890;-53
2021/01/16 01:10:56;;;;;;;8.78;2.20;;;;;;;-7.91;66.71;99102.42;1722028;80;21180;-51
2021/01/16 01:13:23;;;;;;;6.47;2.23;;;;;;;-7.95;67.03;99101.07;1728753;80;21456;-52
2021/01/16 01:15:51;;;;;;;5.90;1.77;;;;;;;-7.98;66.99;99103.20;1729885;81;21713;-51
2021/01/16 01:18:18;;;;;;;5.40;2.00;;;;;;;-8.00;66.94;99097.52;1727168;81;22278;-51
2021/01/16 01:20:45;;;;;;;3.73;1.43;;;;;;;-8.03;67.21;99099.66;1729532;80;21177;-53
2021/01/16 01:23:13;;;;;;;10.37;3.13;;;;;;;-8.01;67.31;99101.87;1725200;81;21120;-52
2021/01/16 01:25:40;;;;;;;11.13;3.73;;;;;;;-8.00;66.91;99100.14;1727676;81;21180;-53
2021/01/16 01:28:07;;;;;;;12.67;3.43;;;;;;;-8.15;66.25;99107.28;1727070;81;21525;-53
2021/01/16 01:30:35;;;;;;;13.20;3.10;;;;;;;-8.41;65.97;99110.81;1665690;84;21406;-53
2021/01/16 01:33:06;;;;;;;8.13;2.47;;;;;;;-8.66;66.55;99118.66;1723483;81;21797;-51
2021/01/16 01:35:33;;;;;;;12.90;2.90;;;;;;;-8.94;67.26;99113.81;1705005;81;21655;-54
2021/01/16 01:38:01;;;;;;;6.10;2.43;;;;;;;-9.15;67.84;99124.70;1726571;80;21191;-54
2021/01/16 01:40:28;;;;;;;9.50;2.10;;;;;;;-9.31;68.17;99110.49;1728959;81;21557;-53
2021/01/16 01:42:56;;;;;;;5.70;1.53;;;;;;;-9.45;67.91;99108.05;1725774;81;21224;-53
2021/01/16 01:45:24;;;;;;;5.07;1.80;;;;;;;-9.57;68.09;99112.98;1731492;81;21104;-52
2021/01/16 01:47:51;;;;;;;6.10;1.93;;;;;;;-9.71;67.57;99108.80;1727127;81;21673;-54
2021/01/16 01:50:19;;;;;;;5.83;1.80;;;;;;;-9.88;67.68;99123.17;1727401;80;22053;-54
2021/01/16 01:52:49;;;;;;;7.33;2.30;;;;;;;-9.95;68.12;99125.16;1670526;83;21705;-52
2021/01/16 01:55:16;;;;;;;7.90;2.57;;;;;;;-9.97;68.34;99127.75;1725070;81;21227;-53
2021/01/16 01:57:46;;;;;;;5.53;1.97;;;;;;;-9.93;68.41;99131.28;1725223;81;21606;-54
2021/01/16 02:00:15;;;;;;;9.30;2.17;;;;;;;-9.90;68.37;99126.16;1729775;81;21247;-54
2021/01/16 02:05:20;;;;;;;8.63;2.37;;;;;;;-9.87;68.04;99133.17;1867388;75;22565;-54
2021/01/16 02:07:47;;;;;;;12.60;3.90;;;;;;;-9.91;67.95;99138.72;1844014;76;21182;-55
2021/01/16 02:10:24;;;;;;;10.77;3.80;;;;;;;-9.86;67.82;99134.48;1845894;76;21265;-53
2021/01/16 02:12:56;;;;;;;14.93;3.30;;;;;;;-9.83;67.60;99141.48;1844163;76;21185;-54
2021/01/16 02:15:41;;;;;;;10.93;3.07;;;;;;;-9.78;67.62;99149.85;1805277;78;21188;-56
2021/01/16 02:18:30;;;;;;;9.90;2.20;;;;;;;-9.71;67.42;99146.98;1772013;78;21522;-52
2021/01/16 02:20:58;;;;;;;8.77;2.53;;;;;;;-9.70;67.12;99152.66;1805122;78;21135;-52
2021/01/16 02:23:45;;;;;;;6.40;2.23;;;;;;;-9.76;67.12;99153.80;1810110;78;22108;-55
2021/01/16 02:26:49;;;;;;;7.10;1.93;;;;;;;-9.78;66.94;99161.57;1768140;79;21178;-54
2021/01/16 02:29:16;;;;;;;5.77;1.53;;;;;;;-9.85;66.85;99169.21;1769966;79;21239;-53
2021/01/16 02:31:52;;;;;;;12.57;1.83;;;;;;;-9.96;66.64;99168.57;1750101;79;21187;-53
2021/01/16 02:34:23;;;;;;;3.87;1.73;;;;;;;-10.06;66.83;99162.68;1751466;79;21131;-55
2021/01/16 02:37:25;;;;;;;7.40;1.63;;;;;;;-10.15;66.94;99157.25;1783590;78;21195;-55
2021/01/16 02:40:16;;;;;;;8.23;1.20;;;;;;;-10.21;67.14;99161.05;1805664;78;21756;-56
2021/01/16 02:42:49;;;;;;;6.87;1.67;;;;;;;-10.21;67.11;99161.47;1790096;78;21546;-54
2021/01/16 02:45:19;;;;;;;4.93;1.33;;;;;;;-10.24;67.24;99162.27;1766775;79;21196;-54
2021/01/16 02:47:50;;;;;;;5.70;1.87;;;;;;;-10.26;67.16;99162.64;1738078;79;21214;-54
2021/01/16 02:50:22;;;;;;;5.30;1.57;;;;;;;-10.28;66.99;99159.12;1764473;79;21295;-54
2021/01/16 02:52:50;;;;;;;8.67;1.23;;;;;;;-10.33;66.57;99163.34;1766747;79;21488;-54
2021/01/16 02:55:17;;;;;;;6.47;1.47;;;;;;;-10.39;66.48;99165.80;1766451;79;21814;-54
2021/01/16 02:57:44;;;;;;;6.87;2.17;;;;;;;-10.42;66.64;99169.20;1769070;79;21143;-54
2021/01/16 03:00:14;;;;;;;7.27;1.30;;;;;;;-10.42;66.09;99165.30;1769094;79;21571;-54
2021/01/16 03:02:41;;;;;;;7.90;1.20;;;;;;;-10.47;66.27;99172.12;1765674;79;21692;-54
2021/01/16 03:05:09;;;;;;;9.07;1.60;;;;;;;-10.49;65.79;99172.49;1772193;79;21190;-54
2021/01/16 03:07:36;;;;;;;6.47;1.87;;;;;;;-10.59;65.65;99170.91;1764794;79;21146;-54
2021/01/16 03:10:08;;;;;;;6.57;1.67;;;;;;;-10.71;66.08;99171.03;1771187;79;22114;-54
2021/01/16 03:12:35;;;;;;;7.07;1.17;;;;;;;-10.76;65.79;99183.47;1771336;79;21099;-54
2021/01/16 03:15:10;;;;;;;4.90;1.30;;;;;;;-10.90;65.42;99177.03;1764835;79;21364;-54
2021/01/16 03:17:52;;;;;;;5.03;1.30;;;;;;;-10.99;65.34;99180.67;1767112;79;21425;-54
2021/01/16 03:20:29;;;;;;;7.07;1.17;;;;;;;-11.06;65.51;99186.55;1769540;79;21175;-54
2021/01/16 03:23:02;;;;;;;8.63;1.63;;;;;;;-11.09;65.70;99191.23;1767643;79;21411;-55
2021/01/16 03:25:30;;;;;;;7.13;1.60;;;;;;;-11.10;65.52;99189.05;1761463;79;21422;-54
2021/01/16 03:27:59;;;;;;;6.23;1.57;;;;;;;-11.11;65.12;99195.08;1768810;79;22354;-54
2021/01/16 03:30:27;;;;;;;4.47;1.37;;;;;;;-11.16;65.10;99192.78;1768558;79;21123;-54
2021/01/16 03:34:19;;;;;;;4.43;1.03;;;;;;;-11.20;64.43;99187.02;1795694;78;23721;-54
2021/01/16 03:36:46;;;;;;;3.23;0.87;;;;;;;-11.31;64.60;99187.58;1766751;79;21379;-54
2021/01/16 03:39:13;;;;;;;5.40;0.90;;;;;;;-11.34;64.24;99191.38;1768621;79;21357;-54
2021/01/16 03:41:41;;;;;;;3.87;1.10;;;;;;;-11.40;64.29;99183.41;1759519;79;21012;-54
2021/01/16 03:44:08;;;;;;;4.90;1.17;;;;;;;-11.45;63.98;99196.66;1740990;80;21264;-54
2021/01/16 03:46:35;;;;;;;6.60;1.60;;;;;;;-11.52;64.14;99196.91;1739808;80;21115;-54
2021/01/16 03:49:03;;;;;;;7.07;1.47;;;;;;;-11.50;64.22;99196.13;1740809;80;20977;-54
2021/01/16 03:51:30;;;;;;;7.87;1.37;;;;;;;-11.48;63.82;99187.94;1745403;80;22264;-55
2021/01/16 03:53:57;;;;;;;5.50;1.13;;;;;;;-11.49;63.57;99187.92;1742394;80;21119;-54
2021/01/16 03:56:26;;;;;;;6.87;1.93;;;;;;;-11.52;62.82;99191.71;1738286;80;21032;-55
2021/01/16 03:58:53;;;;;;;4.53;1.27;;;;;;;-11.62;62.76;99198.75;1745488;80;21233;-54
2021/01/16 04:01:21;;;;;;;6.83;1.07;;;;;;;-11.69;62.52;99204.60;1740997;80;21501;-54
2021/01/16 04:03:49;;;;;;;4.20;1.03;;;;;;;-11.78;62.57;99206.53;1737727;80;22235;-54
2021/01/16 04:06:17;;;;;;;7.17;1.57;;;;;;;-11.82;62.66;99213.74;1739991;80;21159;-54
2021/01/16 04:08:44;;;;;;;2.50;1.00;;;;;;;-11.83;62.34;99212.42;1740440;80;21141;-54
2021/01/16 04:11:12;;;;;;;7.23;1.87;;;;;;;-11.90;62.25;99222.59;1739413;80;21176;-54
2021/01/16 04:13:39;;;;;;;5.23;1.40;;;;;;;-11.94;62.23;99223.76;1737222;80;22286;-54
2021/01/16 04:16:07;;;;;;;5.27;1.10;;;;;;;-11.96;62.31;99218.52;1738659;80;22407;-54
2021/01/16 04:18:35;;;;;;;6.00;1.13;;;;;;;-11.99;62.16;99230.53;1738870;80;21131;-54
2021/01/16 04:21:03;;;;;;;7.80;1.37;;;;;;;-12.03;62.14;99234.73;1743570;80;21751;-54
2021/01/16 04:23:31;;;;;;;9.03;1.20;;;;;;;-12.07;62.00;99239.34;1743160;80;21424;-54
2021/01/16 04:25:58;;;;;;;6.77;2.27;;;;;;;-12.12;62.04;99230.53;1743835;80;21123;-54
2021/01/16 04:28:26;;;;;;;6.87;1.20;;;;;;;-12.13;61.93;99237.84;1742887;80;21550;-54
2021/01/16 04:30:53;;;;;;;3.40;1.10;;;;;;;-12.14;62.05;99235.20;1739811;80;21202;-55
2021/01/16 04:33:21;;;;;;;5.30;1.97;;;;;;;-12.19;61.90;99235.06;1724281;80;21247;-54
2021/01/16 04:35:48;;;;;;;6.27;1.57;;;;;;;-12.26;61.75;99236.99;1704890;82;21863;-54
2021/01/16 04:38:15;;;;;;;9.60;1.37;;;;;;;-12.31;61.90;99235.53;1701320;82;21239;-54
2021/01/16 04:40:43;;;;;;;3.60;1.00;;;;;;;-12.30;61.91;99233.81;1701529;82;21539;-54
2021/01/16 04:43:11;;;;;;;5.53;1.53;;;;;;;-12.30;61.78;99245.48;1703572;81;21727;-54
2021/01/16 04:45:40;;;;;;;6.10;1.17;;;;;;;-12.34;61.62;99248.41;1696333;82;21198;-54
2021/01/16 04:48:09;;;;;;;8.60;1.70;;;;;;;-12.40;61.62;99243.41;1700046;82;21753;-54
2021/01/16 04:50:41;;;;;;;9.73;1.50;;;;;;;-12.46;61.59;99256.17;1699928;82;21650;-53
2021/01/16 04:53:08;;;;;;;8.43;1.60;;;;;;;-12.50;61.57;99255.62;1703592;82;22258;-53
2021/01/16 04:55:37;;;;;;;9.13;2.07;;;;;;;-12.56;61.54;99258.86;1705507;82;21729;-53
2021/01/16 04:58:09;;;;;;;6.47;1.50;;;;;;;-12.61;61.52;99264.31;1705241;82;21183;-53
2021/01/16 05:00:40;;;;;;;11.90;2.20;;;;;;;-12.63;61.41;99264.66;1705718;82;21089;-53
2021/01/16 05:03:13;;;;;;;14.43;2.30;;;;;;;-12.67;61.42;99266.66;1702454;82;21196;-53
2021/01/16 05:05:42;;;;;;;12.43;1.57;;;;;;;-12.69;61.42;99261.45;1701093;82;22039;-53
2021/01/16 05:08:10;;;;;;;9.77;1.87;;;;;;;-12.70;61.32;99263.98;1705241;82;21219;-53
2021/01/16 05:10:40;;;;;;;14.60;2.60;;;;;;;-12.73;61.27;99264.75;1705072;82;21128;-53
2021/01/16 05:13:15;;;;;;;13.97;1.90;;;;;;;-12.73;61.15;99271.64;1702703;82;21109;-53
2021/01/16 05:15:44;;;;;;;13.17;2.40;;;;;;;-12.78;61.19;99268.91;1701214;82;21775;-52
2021/01/16 05:18:20;;;;;;;6.87;2.50;;;;;;;-12.79;61.17;99269.73;1700324;82;21378;-53
2021/01/16 05:20:47;;;;;;;6.45;1.87;;;;;;;-12.85;61.01;99271.23;1703348;82;21120;-53
2021/01/16 05:23:17;;;;;;;6.80;1.43;;;;;;;-12.92;61.07;99275.69;1669893;83;21709;-53
2021/01/16 05:25:52;;;;;;;8.07;1.77;;;;;;;-13.02;61.16;99279.68;1644863;84;21183;-53
2021/01/16 05:28:22;;;;;;;8.37;1.80;;;;;;;-13.09;61.29;99278.55;1648513;84;21116;-53
2021/01/16 05:31:01;;;;;;;8.63;1.70;;;;;;;-13.12;61.34;99281.45;1648112;84;21445;-53
2021/01/16 05:33:34;;;;;;;8.17;1.60;;;;;;;-13.17;61.38;99286.48;1655682;83;21124;-53
2021/01/16 05:36:05;;;;;;;6.23;1.63;;;;;;;-13.21;61.36;99291.09;1727417;80;21228;-53
2021/01/16 05:38:39;;;;;;;6.07;1.13;;;;;;;-13.28;61.41;99294.69;1725908;80;21503;-53
2021/01/16 05:41:15;;;;;;;6.57;1.27;;;;;;;-13.27;61.53;99301.23;1806616;76;22748;-54
2021/01/16 05:43:43;;;;;;;7.83;1.37;;;;;;;-13.32;61.38;99297.56;1779466;79;21429;-54
2021/01/16 05:46:15;;;;;;;8.43;1.83;;;;;;;-13.37;61.37;99300.41;1775471;79;21520;-54
2021/01/16 05:48:42;;;;;;;6.17;1.43;;;;;;;-13.43;61.39;99307.91;1778571;79;20975;-53
2021/01/16 05:51:09;;;;;;;7.10;1.50;;;;;;;-13.46;61.51;99297.45;1777543;78;21439;-54
2021/01/16 05:53:36;;;;;;;8.37;1.87;;;;;;;-13.46;61.47;99303.93;1776824;78;21119;-54
2021/01/16 05:56:04;;;;;;;8.50;1.40;;;;;;;-13.50;61.37;99304.61;1746382;79;21783;-54
2021/01/16 05:58:33;;;;;;;10.03;2.03;;;;;;;-13.56;61.29;99311.74;1721652;79;22139;-53
2021/01/16 06:01:06;;;;;;;12.30;1.60;;;;;;;-13.62;61.04;99313.22;1778811;79;21009;-53
2021/01/16 06:03:37;;;;;;;8.80;1.20;;;;;;;-13.69;60.86;99315.09;1776507;79;21529;-53
2021/01/16 06:06:12;;;;;;;6.83;1.40;;;;;;;-13.75;60.62;99318.30;1777521;78;21091;-53
2021/01/16 06:08:53;;;;;;;7.15;1.40;;;;;;;-13.79;60.37;99320.30;1774448;78;21126;-54
2021/01/16 06:11:22;;;;;;;9.27;1.50;;;;;;;-13.88;60.35;99331.16;1777267;79;22254;-53
2021/01/16 06:13:50;;;;;;;6.27;1.30;;;;;;;-13.97;60.33;99328.61;1781820;78;21135;-53
2021/01/16 06:16:18;;;;;;;7.47;1.50;;;;;;;-14.10;60.43;99331.08;1777403;79;21878;-53
2021/01/16 06:18:52;;;;;;;11.53;1.47;;;;;;;-14.15;60.56;99336.89;1774525;79;21108;-54
2021/01/16 06:21:24;;;;;;;8.80;1.30;;;;;;;-14.17;60.64;99339.41;1778438;79;21519;-54
2021/01/16 06:23:59;;;;;;;5.93;1.70;;;;;;;-14.18;60.63;99351.45;1778319;78;21859;-54
2021/01/16 06:26:27;;;;;;;13.60;1.50;;;;;;;-14.21;60.74;99350.45;1741608;80;21015;-54
2021/01/16 06:29:00;;;;;;;9.03;1.37;;;;;;;-14.22;60.78;99349.57;1715129;81;21096;-54
2021/01/16 06:31:29;;;;;;;11.17;2.03;;;;;;;-14.19;60.75;99355.25;1780363;78;21417;-54
2021/01/16 06:34:05;;;;;;;5.90;1.30;;;;;;;-14.18;60.56;99354.44;1775947;78;21134;-54
2021/01/16 06:36:34;;;;;;;7.90;1.73;;;;;;;-14.15;60.48;99364.92;1775444;79;21359;-55
2021/01/16 06:39:06;;;;;;;8.50;1.20;;;;;;;-14.17;60.46;99364.86;1778475;79;21122;-54
2021/01/16 06:41:37;;;;;;;6.00;1.53;;;;;;;-14.21;60.48;99372.03;1704500;82;21683;-54
2021/01/16 06:44:14;;;;;;;13.27;1.80;;;;;;;-14.21;60.48;99372.03;1696867;83;21168;-54
2021/01/16 06:46:49;;;;;;;13.10;1.93;;;;;;;-14.18;60.42;99377.72;1695253;83;21136;-54
2021/01/16 06:49:28;;;;;;;11.50;2.00;;;;;;;-14.16;60.39;99372.20;1695296;82;21696;-54
2021/01/16 06:52:07;;;;;;;10.50;2.47;;;;;;;-14.13;60.32;99383.10;1695753;83;21207;-54
2021/01/16 06:54:36;;;;;;;11.50;1.23;;;;;;;-14.14;60.32;99388.68;1690161;83;22261;-55
2021/01/16 06:57:13;;;;;;;8.23;1.30;;;;;;;-14.14;60.04;99394.26;1693265;83;22038;-54
2021/01/16 06:59:44;;;;;;;8.47;1.73;;;;;;;-14.20;60.01;99398.73;1691810;82;21255;-53
2021/01/16 07:02:33;;;;;;;6.17;1.40;;;;;;;-14.24;59.61;99391.68;1695653;83;21212;-52
2021/01/16 07:05:07;;;;;;;6.50;0.93;;;;;;;-14.24;59.70;99394.27;1694176;83;21195;-52
2021/01/16 07:07:39;;;;;;;11.28;1.67;;;;;;;-14.23;59.52;99396.04;1693766;83;21136;-54
2021/01/16 07:10:12;;;;;;;7.20;1.50;;;;;;;-14.23;59.42;99399.92;1691022;82;21132;-54
2021/01/16 07:15:23;;;;;;;5.67;0.90;;;;;;;-14.20;59.03;99407.37;1825065;76;22311;-54
2021/01/16 07:17:51;;;;;;;6.83;1.00;;;;;;;-14.26;58.96;99417.47;1792522;77;21008;-54
2021/01/16 07:20:18;;;;;;;6.07;1.20;;;;;;;-14.25;59.00;99416.66;1772529;77;21204;-56
2021/01/16 07:22:46;;;;;;;7.00;1.03;;;;;;;-14.21;58.84;99423.73;1708754;80;21742;-54
2021/01/16 07:25:14;;;;;;;5.63;1.00;;;;;;;-14.16;58.79;99416.17;1703126;79;21632;-55
2021/01/16 07:27:42;;;;;;;12.60;1.50;;;;;;;-14.07;58.69;99418.27;1797416;77;21066;-54
2021/01/16 07:30:11;;;;;;;6.10;1.23;;;;;;;-14.03;58.56;99422.77;1775256;77;21195;-54
2021/01/16 07:32:42;;;;;;;9.07;1.27;;;;;;;-14.00;58.42;99418.59;1790277;77;22046;-55
2021/01/16 07:35:19;;;;;;;8.03;1.13;;;;;;;-13.95;58.48;99427.42;1790538;77;21203;-55
2021/01/16 07:37:48;;;;;;;5.47;1.03;;;;;;;-13.89;58.42;99430.70;1791270;77;21402;-55
2021/01/16 07:40:20;;;;;;;7.70;1.20;;;;;;;-13.85;58.16;99437.75;1791505;77;21106;-54
2021/01/16 07:42:56;;;;;;;8.73;0.90;;;;;;;-13.85;58.19;99428.29;1771083;77;21550;-54
2021/01/16 07:45:33;;;;;;;4.47;0.90;;;;;;;-13.84;58.00;99433.94;1766718;79;22258;-55
2021/01/16 07:48:04;;;;;;;7.53;1.30;;;;;;;-13.81;58.02;99439.26;1737352;80;22316;-54
2021/01/16 07:50:34;;;;;;;8.10;1.17;;;;;;;-13.77;58.05;99434.19;1743034;80;21214;-55
2021/01/16 07:53:06;;;;;;;7.20;0.90;;;;;;;-13.69;57.92;99440.61;1736112;80;21202;-54
2021/01/16 07:55:41;;;;;;;7.60;1.17;;;;;;;-13.59;57.68;99437.55;1714837;81;21212;-54
2021/01/16 07:58:35;;;;;;;5.57;0.97;;;;;;;-13.56;57.14;99442.45;1718451;81;21930;-55
2021/01/16 08:01:27;;;;;;;7.10;0.93;;;;;;;-13.56;57.14;99457.98;1767586;79;21189;-55
2021/01/16 08:04:38;;;;;;;7.43;1.57;;;;;;;-13.54;56.98;99454.17;1743155;79;21197;-52
2021/01/16 08:07:09;;;;;;;5.93;1.03;;;;;;;-13.51;56.86;99452.58;1777844;79;21167;-54
2021/01/16 08:09:54;;;;;;;7.63;1.03;;;;;;;-13.50;56.52;99462.53;1773487;79;21202;-55
2021/01/16 08:12:24;;;;;;;3.93;0.80;;;;;;;-13.55;56.29;99460.17;1767315;79;22186;-53
2021/01/16 08:14:53;;;;;;;4.17;0.87;;;;;;;-13.62;56.08;99463.33;1776708;79;21198;-53
2021/01/16 08:17:24;;;;;;;7.73;0.80;;;;;;;-13.69;56.07;99462.16;1776290;79;21173;-54
2021/01/16 08:20:02;;;;;;;6.87;0.97;;;;;;;-13.70;56.10;99461.72;1718843;81;21830;-55
2021/01/16 08:22:51;;;;;;;6.60;1.00;;;;;;;-13.67;55.96;99455.76;1718736;81;21192;-56
2021/01/16 08:25:14;;;;;;;6.45;1.37;;;;;;;-13.66;56.11;99451.95;1727263;81;25302;-54
2021/01/16 08:27:47;;;;;;;9.53;1.70;;;;;;;-13.61;56.12;99453.05;1771184;79;21560;-54
2021/01/16 08:30:17;;;;;;;5.87;1.30;;;;;;;-13.57;56.00;99454.03;1780073;79;21639;-54
2021/01/16 08:33:06;;;;;;;15.77;2.37;;;;;;;-13.53;56.06;99454.25;1782729;79;21179;-54
2021/01/16 08:35:46;;;;;;;5.70;1.00;;;;;;;-13.52;55.88;99446.92;1777474;79;21148;-52
2021/01/16 08:38:19;;;;;;;8.30;1.10;;;;;;;-13.51;55.75;99452.98;1768706;79;21509;-53
2021/01/16 08:41:03;;;;;;;6.27;1.47;;;;;;;-13.47;55.81;99460.97;1763398;79;21170;-53
2021/01/16 08:43:43;;;;;;;6.78;0.75;;;;;;;-13.47;55.85;99455.78;1775589;79;21170;-54
2021/01/16 08:46:21;;;;;;;5.40;1.00;;;;;;;-13.41;55.79;99461.61;1783053;79;21159;-52
2021/01/16 08:49:05;;;;;;;3.67;0.77;;;;;;;-13.40;55.33;99460.80;1762638;79;21199;-53
2021/01/16 08:51:43;;;;;;;4.60;1.37;;;;;;;-13.48;55.47;99452.72;1770366;79;21195;-53
2021/01/16 08:54:24;;;;;;;4.23;1.10;;;;;;;-13.49;55.66;99452.65;1768988;79;21123;-52
2021/01/16 08:57:03;;;;;;;9.67;1.07;;;;;;;-13.47;55.42;99453.61;1766872;79;21104;-55
2021/01/16 08:59:32;;;;;;;9.33;1.40;;;;;;;-13.53;54.99;99459.42;1764915;79;21107;-53
2021/01/16 09:02:11;;;;;;;4.07;1.10;;;;;;;-13.58;55.10;99457.03;1774471;79;21141;-53
2021/01/16 09:04:40;;;;;;;4.57;0.93;;;;;;;-13.56;55.27;99448.93;1771535;79;21412;-53
2021/01/16 09:07:22;;;;;;;4.83;0.83;;;;;;;-13.52;55.34;99448.22;1777113;79;20988;-54
2021/01/16 09:10:03;;;;;;;7.20;1.97;;;;;;;-13.50;55.47;99454.76;1773669;79;21134;-53
2021/01/16 09:12:38;;;;;;;8.43;1.10;;;;;;;-13.46;55.39;99451.09;1783267;79;20953;-53
2021/01/16 09:15:27;;;;;;;3.73;0.90;;;;;;;-13.43;55.29;99458.07;1777600;79;21095;-54
2021/01/16 09:18:10;;;;;;;6.47;0.97;;;;;;;-13.41;55.24;99453.44;1778741;79;21143;-54
2021/01/16 09:20:46;;;;;;;3.17;1.00;;;;;;;-13.36;55.25;99452.76;1778807;79;21114;-54
2021/01/16 09:23:27;;;;;;;6.33;1.17;;;;;;;-13.32;55.13;99449.45;1770601;79;21574;-53
2021/01/16 09:26:10;;;;;;;6.03;0.90;;;;;;;-13.29;55.14;99446.59;1773435;79;21113;-54
2021/01/16 09:29:01;;;;;;;3.25;0.57;;;;;;;-13.24;55.08;99451.94;1774054;78;21060;-54
2021/01/16 09:31:33;;;;;;;3.50;1.27;;;;;;;-13.22;54.91;99451.19;1766728;79;22262;-53
2021/01/16 09:34:17;;;;;;;8.03;0.97;;;;;;;-13.20;54.88;99450.85;1771723;79;21102;-53
2021/01/16 09:37:00;;;;;;;6.90;1.33;;;;;;;-13.18;54.80;99450.92;1776728;79;21341;-55
2021/01/16 09:39:33;;;;;;;5.37;1.10;;;;;;;-13.21;54.79;99458.14;1771700;79;21565;-54
2021/01/16 09:42:09;;;;;;;5.72;1.02;;;;;;;-13.22;54.65;99446.42;1773538;78;21147;-55
2021/01/16 09:44:49;;;;;;;4.90;1.47;;;;;;;-13.24;54.69;99445.06;1758472;78;21392;-53
2021/01/16 09:47:31;;;;;;;4.30;1.20;;;;;;;-13.22;54.67;99442.13;1770680;78;21444;-53
2021/01/16 09:50:09;;;;;;;5.07;1.17;;;;;;;-13.20;54.89;99445.67;1769637;79;21106;-53
2021/01/16 09:52:45;;;;;;;6.30;1.20;;;;;;;-13.16;55.07;99448.84;1775450;79;21107;-54
2021/01/16 09:55:21;;;;;;;6.20;0.87;;;;;;;-13.18;54.78;99442.70;1754278;79;21691;-53
2021/01/16 09:57:49;;;;;;;6.23;1.00;;;;;;;-13.14;54.86;99447.61;1769153;78;21437;-52
2021/01/16 10:00:21;;;;;;;7.80;1.00;;;;;;;-13.07;55.00;99452.17;1770662;78;21258;-53
2021/01/16 10:02:48;;;;;;;5.17;0.80;;;;;;;-12.99;55.06;99455.06;1774505;78;21576;-54
2021/01/16 10:05:35;;;;;;;3.07;0.80;;;;;;;-12.91;54.74;99447.17;1763450;79;21656;-54
2021/01/16 10:08:04;;;;;;;6.17;0.90;;;;;;;-12.94;54.45;99437.60;1748211;79;21175;-54
2021/01/16 10:10:46;;;;;;;6.03;1.10;;;;;;;-12.95;54.40;99443.60;1773549;79;21263;-55
2021/01/16 10:13:27;;;;;;;3.00;0.70;;;;;;;-12.95;54.19;99438.42;1774498;79;21577;-54
2021/01/16 10:15:56;;;;;;;4.53;1.00;;;;;;;-12.98;54.22;99432.22;1786313;78;21187;-53
2021/01/16 10:18:27;;;;;;;9.27;1.40;;;;;;;-12.99;54.52;99437.81;1757614;79;21193;-53
2021/01/16 10:21:10;;;;;;;3.80;0.87;;;;;;;-12.95;54.58;99428.06;1780721;79;21226;-53
2021/01/16 10:23:42;;;;;;;3.70;1.00;;;;;;;-12.88;54.56;99431.77;1779168;79;21188;-53
2021/01/16 10:26:14;;;;;;;4.30;1.03;;;;;;;-12.87;54.49;99422.76;1767832;79;21138;-53
2021/01/16 10:28:56;;;;;;;5.10;1.00;;;;;;;-12.89;54.44;99420.92;1746755;79;21184;-53
2021/01/16 10:31:27;;;;;;;5.58;0.82;;;;;;;-12.92;54.39;99422.97;1769813;79;21643;-54
2021/01/16 10:34:12;;;;;;;6.90;2.00;;;;;;;-12.93;54.55;99420.34;1768372;79;21201;-54
2021/01/16 10:36:40;;;;;;;6.77;1.10;;;;;;;-12.90;54.71;99423.03;1755215;79;21612;-53
2021/01/16 10:39:10;;;;;;;8.97;1.73;;;;;;;-12.88;54.75;99426.17;1773841;79;21050;-54
2021/01/16 10:41:39;;;;;;;4.90;1.10;;;;;;;-12.88;54.72;99427.88;1777228;79;21211;-54
2021/01/16 10:44:08;;;;;;;6.53;1.40;;;;;;;-12.90;54.66;99428.22;1774198;79;21167;-53
2021/01/16 10:46:48;;;;;;;7.83;1.50;;;;;;;-12.95;54.90;99413.80;1768309;79;21224;-53
2021/01/16 10:49:25;;;;;;;9.83;1.33;;;;;;;-12.95;55.05;99409.92;1767903;79;21432;-53
2021/01/16 10:52:02;;;;;;;5.73;1.10;;;;;;;-12.85;54.86;99408.57;1866172;75;22452;-53
2021/01/16 10:54:30;;;;;;;6.03;1.23;;;;;;;-12.86;54.87;99414.16;1840445;76;21079;-54
2021/01/16 10:57:08;;;;;;;6.07;0.70;;;;;;;-12.83;54.91;99409.08;1798266;78;21510;-53
2021/01/16 10:59:38;;;;;;;4.40;0.70;;;;;;;-12.83;54.88;99408.19;1801163;78;21013;-53
2021/01/16 11:02:13;;;;;;;3.97;0.97;;;;;;;-12.80;55.01;99404.43;1801353;78;21480;-54
2021/01/16 11:04:42;;;;;;;8.07;1.20;;;;;;;-12.74;54.75;99405.54;1771657;79;21241;-53
2021/01/16 11:07:10;;;;;;;8.83;1.10;;;;;;;-12.73;54.83;99405.13;1772179;79;21588;-52
2021/01/16 11:09:44;;;;;;;8.17;2.07;;;;;;;-12.73;55.04;99400.83;1775672;79;21451;-53
2021/01/16 11:12:11;;;;;;;3.10;0.90;;;;;;;-12.66;55.00;99393.75;1779136;79;21012;-54
2021/01/16 11:14:41;;;;;;;6.90;1.00;;;;;;;-12.62;55.22;99402.95;1802153;78;21218;-53
2021/01/16 11:17:10;;;;;;;6.03;1.10;;;;;;;-12.56;55.18;99396.68;1776660;78;21535;-54
2021/01/16 11:19:42;;;;;;;7.73;1.40;;;;;;;-12.53;55.03;99395.52;1797506;78;21231;-53
2021/01/16 11:22:14;;;;;;;3.50;1.20;;;;;;;-12.49;55.18;99403.44;1773159;78;21403;-53
2021/01/16 11:24:56;;;;;;;5.43;1.10;;;;;;;-12.41;55.29;99398.12;1780820;78;21198;-54
2021/01/16 11:27:26;;;;;;;5.77;0.90;;;;;;;-12.36;54.60;99394.00;1776621;78;21195;-54
2021/01/16 11:30:09;;;;;;;11.53;1.10;;;;;;;-12.42;55.17;99396.38;1801546;78;21192;-54
2021/01/16 11:32:37;;;;;;;6.67;1.03;;;;;;;-12.36;55.42;99394.00;1800648;78;21160;-54
2021/01/16 11:35:12;;;;;;;4.73;1.10;;;;;;;-12.23;55.33;99397.91;1765914;79;21350;-54
2021/01/16 11:37:53;;;;;;;;;;;;;;;-12.13;55.07;99403.01;1779194;79;21418;-53
2021/01/16 11:40:26;;;;;;;3.50;0.77;;;;;;;-12.07;55.04;99397.61;1774939;79;20976;-54
2021/01/16 11:42:57;;;;;;;3.22;1.00;;;;;;;-12.02;55.13;99398.67;1762857;79;21203;-54
2021/01/16 11:45:25;;;;;;;5.37;1.00;;;;;;;-11.98;54.69;99407.44;1763908;78;21197;-53
2021/01/16 11:47:56;;;;;;;4.33;0.80;;;;;;;-11.99;54.54;99405.25;1766839;79;21224;-53
2021/01/16 11:50:27;;;;;;;5.70;1.30;;;;;;;-12.02;54.29;99393.90;1759667;79;23714;-54
2021/01/16 11:52:54;;;;;;;5.90;0.90;;;;;;;-12.06;54.28;99389.00;1771780;79;21103;-53
2021/01/16 11:55:22;;;;;;;3.80;1.00;;;;;;;-12.05;54.21;99393.37;1777209;78;21101;-53
2021/01/16 11:57:49;;;;;;;3.53;1.20;;;;;;;-12.05;54.37;99390.77;1746534;80;21091;-53